createdAt,value
2023-01-09T00:02:04.466Z,3.43
2023-01-09T00:04:34.933Z,2.83
2023-01-09T00:07:02.093Z,2.80
2023-01-09T00:09:31.009Z,6.10
2023-01-09T00:11:57.767Z,3.03
2023-01-09T00:14:24.468Z,2.17
2023-01-09T00:16:53.958Z,2.50
2023-01-09T00:19:20.578Z,4.23
2023-01-09T00:21:47.556Z,5.10
2023-01-09T00:24:17.118Z,3.83
2023-01-09T00:26:43.841Z,2.80
2023-01-09T00:29:12.085Z,2.23
2023-01-09T00:31:38.701Z,2.77
2023-01-09T00:34:10.346Z,2.53
2023-01-09T00:36:37.323Z,2.03
2023-01-09T00:39:04.973Z,2.30
2023-01-09T00:41:36.979Z,2.90
2023-01-09T00:44:17.253Z,2.40
2023-01-09T00:46:47.790Z,2.70
2023-01-09T00:49:16.697Z,4.43
2023-01-09T00:51:44.971Z,2.50
2023-01-09T00:54:17.817Z,2.60
2023-01-09T00:56:44.891Z,2.27
2023-01-09T00:59:11.551Z,4.07
2023-01-09T01:01:41.172Z,1.97
2023-01-09T01:04:37.633Z,2.00
2023-01-09T01:07:28.224Z,4.50
2023-01-09T01:09:54.849Z,3.17
2023-01-09T01:12:21.489Z,2.83
2023-01-09T01:14:48.144Z,1.93
2023-01-09T01:17:14.797Z,2.17
2023-01-09T01:19:41.442Z,2.63
2023-01-09T01:22:08.093Z,2.63
2023-01-09T01:24:37.345Z,1.63
2023-01-09T01:27:04.241Z,1.90
2023-01-09T01:29:30.957Z,1.73
2023-01-09T01:31:57.645Z,3.40
2023-01-09T01:34:24.747Z,1.90
2023-01-09T01:36:51.507Z,1.90
2023-01-09T01:39:18.244Z,2.13
2023-01-09T01:41:44.876Z,2.43
2023-01-09T01:44:49.278Z,3.53
2023-01-09T01:47:18.312Z,2.57
2023-01-09T01:49:45.650Z,2.43
2023-01-09T01:52:13.015Z,2.27
2023-01-09T01:54:39.986Z,4.33
2023-01-09T01:57:07.187Z,4.50
2023-01-09T01:59:37.490Z,1.60
2023-01-09T02:02:08.216Z,1.73
2023-01-09T02:04:40.452Z,2.60
2023-01-09T02:07:23.394Z,2.10
2023-01-09T02:09:50.557Z,1.73
2023-01-09T02:12:25.263Z,2.40
2023-01-09T02:14:58.291Z,2.70
2023-01-09T02:17:33.965Z,2.90
2023-01-09T02:20:29.071Z,3.13
2023-01-09T02:23:22.352Z,2.10
2023-01-09T02:26:26.541Z,3.90
2023-01-09T02:28:53.163Z,2.60
2023-01-09T02:31:32.412Z,1.90
2023-01-09T02:34:18.645Z,2.20
2023-01-09T02:37:06.942Z,1.70
2023-01-09T02:39:55.937Z,1.77
2023-01-09T02:42:25.449Z,2.23
2023-01-09T02:44:52.076Z,1.60
2023-01-09T02:47:18.625Z,4.00
2023-01-09T02:49:58.265Z,2.90
2023-01-09T02:52:56.016Z,2.20
2023-01-09T02:55:38.091Z,2.37
2023-01-09T02:58:27.085Z,2.00
2023-01-09T03:01:13.484Z,1.70
2023-01-09T03:03:58.606Z,2.40
2023-01-09T03:06:32.926Z,2.87
2023-01-09T03:09:08.452Z,2.20
2023-01-09T03:11:42.179Z,1.90
2023-01-09T03:14:14.271Z,1.80
2023-01-09T03:16:44.660Z,2.60
2023-01-09T03:19:16.470Z,3.20
2023-01-09T03:21:47.400Z,2.53
2023-01-09T03:24:14.052Z,2.53
2023-01-09T03:26:41.111Z,4.17
2023-01-09T03:29:07.780Z,4.17
2023-01-09T03:31:36.685Z,2.30
2023-01-09T03:34:03.490Z,2.77
2023-01-09T03:36:30.362Z,1.80
2023-01-09T03:39:00.878Z,2.40
2023-01-09T03:41:27.494Z,2.23
2023-01-09T03:43:54.054Z,1.97
2023-01-09T03:46:20.674Z,1.90
2023-01-09T03:48:47.472Z,2.93
2023-01-09T03:51:14.800Z,2.53
2023-01-09T03:53:42.284Z,2.90
2023-01-09T03:56:09.028Z,2.80
2023-01-09T03:58:38.437Z,2.40
2023-01-09T04:01:06.214Z,2.60
2023-01-09T04:03:33.028Z,1.63
2023-01-09T04:05:59.918Z,3.93
2023-01-09T04:08:26.603Z,2.83
2023-01-09T04:10:53.312Z,2.43
2023-01-09T04:13:20.251Z,2.80
2023-01-09T04:15:51.497Z,1.83
2023-01-09T04:18:18.323Z,3.27
2023-01-09T04:20:48.273Z,1.90
2023-01-09T04:23:15.147Z,2.33
2023-01-09T04:25:43.959Z,2.23
2023-01-09T04:28:10.674Z,6.00
2023-01-09T04:30:37.420Z,2.10
2023-01-09T04:33:06.275Z,2.33
2023-01-09T04:35:32.938Z,3.07
2023-01-09T04:38:01.359Z,2.67
2023-01-09T04:40:28.229Z,2.73
2023-01-09T04:42:54.911Z,3.53
2023-01-09T04:45:21.521Z,3.20
2023-01-09T04:47:48.847Z,2.73
2023-01-09T04:50:15.702Z,2.90
2023-01-09T04:52:42.403Z,4.23
2023-01-09T04:55:09.292Z,4.27
2023-01-09T04:57:36.515Z,1.87
2023-01-09T05:00:12.066Z,3.30
2023-01-09T05:02:41.990Z,4.80
2023-01-09T05:05:11.867Z,2.97
2023-01-09T05:07:40.197Z,3.13
2023-01-09T05:10:08.675Z,4.77
2023-01-09T05:12:36.326Z,8.40
2023-01-09T05:15:04.045Z,5.07
2023-01-09T05:17:30.633Z,4.47
2023-01-09T05:19:57.312Z,3.30
2023-01-09T05:22:23.916Z,3.97
2023-01-09T05:24:50.656Z,3.73
2023-01-09T05:27:17.454Z,3.30
2023-01-09T05:29:44.050Z,3.20
2023-01-09T05:32:15.014Z,4.70
2023-01-09T05:34:41.733Z,2.93
2023-01-09T05:37:08.345Z,2.73
2023-01-09T05:39:34.996Z,4.30
2023-01-09T05:42:01.670Z,2.90
2023-01-09T05:44:29.891Z,3.80
2023-01-09T05:46:56.477Z,6.57
2023-01-09T05:49:23.041Z,1.90
2023-01-09T05:51:49.605Z,2.00
2023-01-09T05:54:16.190Z,3.10
2023-01-09T05:56:42.784Z,3.20
2023-01-09T05:59:09.375Z,3.93
2023-01-09T06:01:36.135Z,2.40
2023-01-09T06:04:02.783Z,2.13
2023-01-09T06:06:29.385Z,2.97
2023-01-09T06:08:56.003Z,4.53
2023-01-09T06:11:22.589Z,2.23
2023-01-09T06:13:49.191Z,2.43
2023-01-09T06:16:15.902Z,1.90
2023-01-09T06:18:42.626Z,4.17
2023-01-09T06:21:09.264Z,1.80
2023-01-09T06:23:35.913Z,2.63
2023-01-09T06:26:02.563Z,4.17
2023-01-09T06:28:29.150Z,2.37
2023-01-09T06:30:55.758Z,2.53
2023-01-09T06:33:22.483Z,3.33
2023-01-09T06:35:49.109Z,2.47
2023-01-09T06:38:15.732Z,2.63
2023-01-09T06:40:42.321Z,2.37
2023-01-09T06:43:08.904Z,2.67
2023-01-09T06:45:35.589Z,4.93
2023-01-09T06:48:02.281Z,2.53
2023-01-09T06:50:28.949Z,3.57
2023-01-09T06:52:55.571Z,2.50
2023-01-09T06:55:22.302Z,3.13
2023-01-09T06:57:48.882Z,3.70
2023-01-09T07:00:16.123Z,3.33
2023-01-09T07:02:42.840Z,4.13
2023-01-09T07:05:11.782Z,3.33
2023-01-09T07:07:39.566Z,3.27
2023-01-09T07:10:07.418Z,3.20
2023-01-09T07:12:34.103Z,2.80
2023-01-09T07:15:00.821Z,3.17
2023-01-09T07:17:27.410Z,3.40
2023-01-09T07:19:54.070Z,3.00
2023-01-09T07:22:20.663Z,5.90
2023-01-09T07:24:47.560Z,5.10
2023-01-09T07:27:14.196Z,3.13
2023-01-09T07:29:40.830Z,2.60
2023-01-09T07:32:07.697Z,2.80
2023-01-09T07:34:34.442Z,3.50
2023-01-09T07:37:01.101Z,4.40
2023-01-09T07:39:27.699Z,5.50
2023-01-09T07:41:54.296Z,4.17
2023-01-09T07:44:20.959Z,4.10
2023-01-09T07:46:47.709Z,4.10
2023-01-09T07:49:14.300Z,3.57
2023-01-09T07:51:43.115Z,4.50
2023-01-09T07:54:11.092Z,3.83
2023-01-09T07:56:37.813Z,4.53
2023-01-09T07:59:04.609Z,4.23
2023-01-09T08:01:31.568Z,4.00
2023-01-09T08:03:58.269Z,3.77
2023-01-09T08:06:24.905Z,3.70
2023-01-09T08:08:51.543Z,3.03
2023-01-09T08:11:18.149Z,4.33
2023-01-09T08:13:44.750Z,3.50
2023-01-09T08:16:11.423Z,4.93
2023-01-09T08:18:38.042Z,5.30
2023-01-09T08:21:04.686Z,4.50
2023-01-09T08:23:31.315Z,8.03
2023-01-09T08:25:57.885Z,5.87
2023-01-09T08:28:24.527Z,4.27
2023-01-09T08:30:51.387Z,4.30
2023-01-09T08:33:18.007Z,4.33
2023-01-09T08:35:45.016Z,6.00
2023-01-09T08:38:11.795Z,5.57
2023-01-09T08:40:38.769Z,6.17
2023-01-09T08:43:23.866Z,5.57
2023-01-09T08:46:20.410Z,6.07
2023-01-09T08:48:50.213Z,8.07
2023-01-09T08:51:16.796Z,6.67
2023-01-09T08:53:43.449Z,6.33
2023-01-09T08:56:10.212Z,7.13
2023-01-09T08:58:36.866Z,9.20
2023-01-09T09:01:07.883Z,5.87
2023-01-09T09:03:34.513Z,9.40
2023-01-09T09:06:01.138Z,9.57
2023-01-09T09:08:27.743Z,5.50
2023-01-09T09:10:54.344Z,6.50
2023-01-09T09:13:20.975Z,10.33
2023-01-09T09:15:47.771Z,10.90
2023-01-09T09:18:14.399Z,7.80
2023-01-09T09:20:41.005Z,7.53
2023-01-09T09:23:08.256Z,8.80
2023-01-09T09:25:35.462Z,8.93
2023-01-09T09:28:02.101Z,9.23
2023-01-09T09:30:28.734Z,14.77
2023-01-09T09:32:55.903Z,8.80
2023-01-09T09:35:22.892Z,5.93
2023-01-09T09:37:55.020Z,8.87
2023-01-09T09:40:37.373Z,7.17
2023-01-09T09:43:56.383Z,9.77
2023-01-09T09:46:44.560Z,14.10
2023-01-09T09:49:21.037Z,9.50
2023-01-09T09:51:57.060Z,11.10
2023-01-09T09:54:43.005Z,6.80
2023-01-09T09:57:17.745Z,9.37
2023-01-09T09:59:48.119Z,7.40
2023-01-09T10:02:39.241Z,10.10
2023-01-09T10:05:15.105Z,7.40
2023-01-09T10:07:48.172Z,7.63
2023-01-09T10:10:27.707Z,9.63
2023-01-09T10:12:59.564Z,6.70
2023-01-09T10:15:42.613Z,7.70
2023-01-09T10:18:34.482Z,11.17
2023-01-09T10:21:23.856Z,9.27
2023-01-09T10:24:33.699Z,8.17
2023-01-09T10:27:09.723Z,7.90
2023-01-09T10:29:43.876Z,10.03
2023-01-09T10:32:39.248Z,9.73
2023-01-09T10:35:23.267Z,7.53
2023-01-09T10:37:55.029Z,7.40
2023-01-09T10:40:32.556Z,6.17
2023-01-09T10:43:06.118Z,10.03
2023-01-09T10:45:41.622Z,14.87
2023-01-09T10:48:34.947Z,10.87
2023-01-09T10:51:04.015Z,8.27
2023-01-09T10:53:38.470Z,6.67
2023-01-09T10:56:25.904Z,9.80
2023-01-09T10:58:54.665Z,8.97
2023-01-09T11:01:32.357Z,10.77
2023-01-09T11:04:01.647Z,7.60
2023-01-09T11:06:45.599Z,9.73
2023-01-09T11:09:15.034Z,7.70
2023-01-09T11:11:41.852Z,6.73
2023-01-09T11:14:15.795Z,8.80
2023-01-09T11:16:57.221Z,9.47
2023-01-09T11:19:25.628Z,8.53
2023-01-09T11:22:14.932Z,9.53
2023-01-09T11:24:41.687Z,7.30
2023-01-09T11:27:14.364Z,7.83
2023-01-09T11:29:42.214Z,7.30
2023-01-09T11:32:23.961Z,10.93
2023-01-09T11:34:50.914Z,8.27
2023-01-09T11:37:28.782Z,10.47
2023-01-09T11:39:57.425Z,10.57
2023-01-09T11:42:47.939Z,7.73
2023-01-09T11:45:20.646Z,8.57
2023-01-09T11:47:47.398Z,7.67
2023-01-09T11:50:21.629Z,7.37
2023-01-09T11:53:12.557Z,13.27
2023-01-09T11:55:42.961Z,9.50
2023-01-09T11:58:21.589Z,7.60
2023-01-09T12:01:27.142Z,6.57
2023-01-09T12:04:32.793Z,6.23
2023-01-09T12:07:11.593Z,3.73
2023-01-09T12:10:11.188Z,5.90
2023-01-09T12:12:57.752Z,6.97
2023-01-09T12:15:46.014Z,10.30
2023-01-09T12:18:28.280Z,8.77
2023-01-09T12:21:13.854Z,3.50
2023-01-09T12:24:05.399Z,10.07
2023-01-09T12:27:07.803Z,11.00
2023-01-09T12:30:27.042Z,11.63
2023-01-09T12:33:25.809Z,6.27
2023-01-09T12:36:28.266Z,5.00
2023-01-09T12:39:05.014Z,9.00
2023-01-09T12:41:43.628Z,6.67
2023-01-09T12:44:35.657Z,8.13
2023-01-09T12:47:19.455Z,7.33
2023-01-09T12:50:09.792Z,9.03
2023-01-09T12:52:48.132Z,7.50
2023-01-09T12:55:20.130Z,7.20
2023-01-09T12:57:50.804Z,16.27
2023-01-09T13:00:25.043Z,7.50
2023-01-09T13:03:29.932Z,11.97
2023-01-09T13:05:57.627Z,8.20
2023-01-09T13:08:37.781Z,7.37
2023-01-09T13:11:19.950Z,7.77
2023-01-09T13:13:58.488Z,8.00
2023-01-09T13:16:31.048Z,7.10
2023-01-09T13:19:10.025Z,7.63
2023-01-09T13:21:38.498Z,7.50
2023-01-09T13:24:14.943Z,10.03
2023-01-09T13:26:46.987Z,12.23
2023-01-09T13:29:24.761Z,6.83
2023-01-09T13:32:07.529Z,7.53
2023-01-09T13:34:37.356Z,8.87
2023-01-09T13:37:05.206Z,6.47
2023-01-09T13:39:35.037Z,8.80
2023-01-09T13:42:23.533Z,10.33
2023-01-09T13:44:54.068Z,11.50
2023-01-09T13:47:20.716Z,8.77
2023-01-09T13:49:47.360Z,8.87
2023-01-09T13:52:34.960Z,9.80
2023-01-09T13:55:05.997Z,10.90
2023-01-09T13:57:34.841Z,8.17
2023-01-09T14:00:07.443Z,11.27
2023-01-09T14:02:38.443Z,8.53
2023-01-09T14:05:16.310Z,7.80
2023-01-09T14:07:45.511Z,6.03
2023-01-09T14:10:27.428Z,9.13
2023-01-09T14:12:56.755Z,7.80
2023-01-09T14:15:32.214Z,8.27
2023-01-09T14:18:01.199Z,6.83
2023-01-09T14:20:39.718Z,11.60
2023-01-09T14:23:31.280Z,6.73
2023-01-09T14:25:55.339Z,5.47
2023-01-09T14:28:23.083Z,7.10
2023-01-09T14:30:52.384Z,5.50
2023-01-09T14:33:18.961Z,8.50
2023-01-09T14:36:04.644Z,5.43
2023-01-09T14:38:37.247Z,7.40
2023-01-09T14:41:06.580Z,8.90
2023-01-09T14:44:01.617Z,7.23
2023-01-09T14:46:35.334Z,6.53
2023-01-09T14:49:25.442Z,7.00
2023-01-09T14:51:53.836Z,8.77
2023-01-09T14:54:37.490Z,9.13
2023-01-09T14:57:23.508Z,7.60
2023-01-09T14:59:58.141Z,8.80
2023-01-09T15:02:27.978Z,10.20
2023-01-09T15:04:58.468Z,7.03
2023-01-09T15:07:30.905Z,8.77
2023-01-09T15:10:02.127Z,8.20
2023-01-09T15:12:29.276Z,9.50
2023-01-09T15:14:59.232Z,6.20
2023-01-09T15:17:30.513Z,7.93
2023-01-09T15:19:59.944Z,8.57
2023-01-09T15:22:35.556Z,7.33
2023-01-09T15:25:22.733Z,8.10
2023-01-09T15:27:57.755Z,8.47
2023-01-09T15:30:36.988Z,8.20
2023-01-09T15:33:13.559Z,8.80
2023-01-09T15:35:49.366Z,9.40
2023-01-09T15:38:21.402Z,9.67
2023-01-09T15:41:06.459Z,7.77
2023-01-09T15:43:34.749Z,8.10
2023-01-09T15:46:01.631Z,4.83
2023-01-09T15:48:32.358Z,5.50
2023-01-09T15:51:02.903Z,8.00
2023-01-09T15:53:30.294Z,4.37
2023-01-09T15:56:16.869Z,7.83
2023-01-09T15:58:48.512Z,6.23
2023-01-09T16:01:24.422Z,8.50
2023-01-09T16:03:51.971Z,5.43
2023-01-09T16:06:30.375Z,10.50
2023-01-09T16:08:59.479Z,6.97
2023-01-09T16:11:32.062Z,5.80
2023-01-09T16:14:22.493Z,7.00
2023-01-09T16:16:51.826Z,4.97
2023-01-09T16:19:33.658Z,4.73
2023-01-09T16:22:02.590Z,4.73
2023-01-09T16:24:40.462Z,3.23
2023-01-09T16:27:24.051Z,3.10
2023-01-09T16:29:57.839Z,4.03
2023-01-09T16:32:34.839Z,5.97
2023-01-09T16:35:07.657Z,3.83
2023-01-09T16:37:35.876Z,4.93
2023-01-09T16:40:06.388Z,4.97
2023-01-09T16:42:52.168Z,4.17
2023-01-09T16:45:19.596Z,3.50
2023-01-09T16:47:46.798Z,6.03
2023-01-09T16:50:14.068Z,4.83
2023-01-09T16:52:45.270Z,3.73
2023-01-09T16:55:13.174Z,4.20
2023-01-09T16:57:43.300Z,4.17
2023-01-09T17:00:21.155Z,5.80
2023-01-09T17:02:48.744Z,5.10
2023-01-09T17:05:15.415Z,6.63
2023-01-09T17:07:42.053Z,5.00
2023-01-09T17:10:19.165Z,4.60
2023-01-09T17:12:45.867Z,4.87
2023-01-09T17:15:12.541Z,4.80
2023-01-09T17:17:39.144Z,11.43
2023-01-09T17:20:18.270Z,6.07
2023-01-09T17:22:45.037Z,4.97
2023-01-09T17:25:35.713Z,5.27
2023-01-09T17:28:22.737Z,4.60
2023-01-09T17:30:49.359Z,5.00
2023-01-09T17:33:19.350Z,5.20
2023-01-09T17:35:46.059Z,6.83
2023-01-09T17:38:14.624Z,6.37
2023-01-09T17:40:43.939Z,5.17
2023-01-09T17:43:11.061Z,5.33
2023-01-09T17:45:40.847Z,4.50
2023-01-09T17:48:16.414Z,5.00
2023-01-09T17:50:44.307Z,5.23
2023-01-09T17:53:10.978Z,6.70
2023-01-09T17:55:38.112Z,7.40
2023-01-09T17:58:05.111Z,7.50
2023-01-09T18:00:36.878Z,7.10
2023-01-09T18:03:07.683Z,7.03
2023-01-09T18:05:39.537Z,7.63
2023-01-09T18:08:09.163Z,8.90
2023-01-09T18:10:37.363Z,8.43
2023-01-09T18:13:04.007Z,9.67
2023-01-09T18:15:30.717Z,9.50
2023-01-09T18:17:57.389Z,9.77
2023-01-09T18:20:25.395Z,9.77
2023-01-09T18:22:52.102Z,11.90
2023-01-09T18:25:18.704Z,10.43
2023-01-09T18:27:45.299Z,10.73
2023-01-09T18:30:12.335Z,11.27
2023-01-09T18:32:38.935Z,11.60
2023-01-09T18:35:05.773Z,12.47
2023-01-09T18:37:32.405Z,12.33
2023-01-09T18:39:59.036Z,12.20
2023-01-09T18:42:25.670Z,12.23
2023-01-09T18:44:52.244Z,13.00
2023-01-09T18:47:18.824Z,12.20
2023-01-09T18:49:45.398Z,12.97
2023-01-09T18:52:11.964Z,12.60
2023-01-09T18:54:38.663Z,12.87
2023-01-09T18:57:05.327Z,12.97
2023-01-09T18:59:31.942Z,12.93
2023-01-09T19:02:00.265Z,13.33
2023-01-09T19:04:28.651Z,12.57
2023-01-09T19:06:56.945Z,13.80
2023-01-09T19:09:23.537Z,13.40
2023-01-09T19:11:50.117Z,15.23
2023-01-09T19:14:16.888Z,14.60
2023-01-09T19:16:43.519Z,14.23
2023-01-09T19:19:10.606Z,14.60
2023-01-09T19:21:37.327Z,15.60
2023-01-09T19:24:04.236Z,14.33
2023-01-09T19:26:31.076Z,15.17
2023-01-09T19:28:58.088Z,14.20
2023-01-09T19:31:28.125Z,14.60
2023-01-09T19:33:54.956Z,15.07
2023-01-09T19:36:22.406Z,15.67
2023-01-09T19:38:49.204Z,15.77
2023-01-09T19:41:19.250Z,15.40
2023-01-09T19:43:47.414Z,15.27
2023-01-09T19:46:16.989Z,15.27
2023-01-09T19:48:43.865Z,16.43
2023-01-09T19:51:11.699Z,16.20
2023-01-09T19:53:38.540Z,17.63
2023-01-09T19:56:15.799Z,15.90
2023-01-09T19:58:47.392Z,16.43
2023-01-09T20:01:16.623Z,16.83
2023-01-09T20:03:44.895Z,16.87
2023-01-09T20:06:14.331Z,18.10
2023-01-09T20:08:41.696Z,18.03
2023-01-09T20:11:08.720Z,20.20
2023-01-09T20:13:35.492Z,19.97
2023-01-09T20:16:03.621Z,20.33
2023-01-09T20:18:32.062Z,18.63
2023-01-09T20:20:59.244Z,17.63
2023-01-09T20:23:27.752Z,11.43
2023-01-09T20:25:55.690Z,17.73
2023-01-09T20:28:26.790Z,17.60
2023-01-09T20:30:54.007Z,17.23
2023-01-09T20:33:22.017Z,17.60
2023-01-09T20:35:49.295Z,17.57
2023-01-09T20:38:16.321Z,17.73
2023-01-09T20:40:47.242Z,17.40
2023-01-09T20:43:14.171Z,17.50
2023-01-09T20:45:40.900Z,16.57
2023-01-09T20:48:09.035Z,18.10
2023-01-09T20:50:35.713Z,17.03
2023-01-09T20:53:03.476Z,16.67
2023-01-09T20:55:30.465Z,17.13
2023-01-09T20:57:57.379Z,16.50
2023-01-09T21:00:27.372Z,15.87
2023-01-09T21:02:54.373Z,17.00
2023-01-09T21:05:21.060Z,16.37
2023-01-09T21:07:52.148Z,17.93
2023-01-09T21:10:18.906Z,14.87
2023-01-09T21:12:45.562Z,16.07
2023-01-09T21:15:15.205Z,15.67
2023-01-09T21:17:42.512Z,16.30
2023-01-09T21:20:12.550Z,15.73
2023-01-09T21:22:39.505Z,15.27
2023-01-09T21:25:07.029Z,15.33
2023-01-09T21:27:37.004Z,13.63
2023-01-09T21:30:05.272Z,15.10
2023-01-09T21:32:34.765Z,13.63
2023-01-09T21:35:05.736Z,15.10
2023-01-09T21:37:34.647Z,15.00
2023-01-09T21:40:01.864Z,15.40
2023-01-09T21:42:47.377Z,17.00
2023-01-09T21:45:36.765Z,15.63
2023-01-09T21:48:04.396Z,16.97
2023-01-09T21:50:32.409Z,15.83
2023-01-09T21:53:00.253Z,17.37
2023-01-09T21:55:26.998Z,15.87
2023-01-09T21:57:56.693Z,17.13
2023-01-09T22:00:24.546Z,18.80
2023-01-09T22:02:51.581Z,19.30
2023-01-09T22:05:18.328Z,18.97
2023-01-09T22:07:44.974Z,19.50
2023-01-09T22:10:12.400Z,15.40
2023-01-09T22:12:39.353Z,17.50
2023-01-09T22:15:06.553Z,17.43
2023-01-09T22:17:33.209Z,18.73
2023-01-09T22:20:00.066Z,16.37
2023-01-09T22:22:26.710Z,19.67
2023-01-09T22:24:53.725Z,18.33
2023-01-09T22:27:20.395Z,15.43
2023-01-09T22:29:47.118Z,19.60
2023-01-09T22:32:13.855Z,18.17
2023-01-09T22:34:40.509Z,16.73
2023-01-09T22:37:07.143Z,16.73
2023-01-09T22:39:33.840Z,16.90
2023-01-09T22:42:00.412Z,13.83
2023-01-09T22:44:27.109Z,11.33
2023-01-09T22:46:53.925Z,9.50
2023-01-09T22:49:20.536Z,11.40
2023-01-09T22:51:47.159Z,11.37
2023-01-09T22:54:13.896Z,11.90
2023-01-09T22:56:40.481Z,14.50
2023-01-09T22:59:07.172Z,14.83
2023-01-09T23:01:33.897Z,15.43
2023-01-09T23:04:00.571Z,17.27
2023-01-09T23:06:27.258Z,18.13
2023-01-09T23:08:54.146Z,16.30
2023-01-09T23:11:45.966Z,15.80
2023-01-09T23:14:13.192Z,19.90
2023-01-09T23:16:39.972Z,15.43
2023-01-09T23:19:12.788Z,19.63
2023-01-09T23:21:40.423Z,16.43
2023-01-09T23:24:07.840Z,18.60
2023-01-09T23:26:35.335Z,19.87
2023-01-09T23:29:02.623Z,18.73
2023-01-09T23:31:29.423Z,18.47
2023-01-09T23:33:56.112Z,15.33
2023-01-09T23:36:22.989Z,16.90
2023-01-09T23:38:49.714Z,18.27
2023-01-09T23:41:16.491Z,18.33
2023-01-09T23:43:43.908Z,17.93
2023-01-09T23:46:12.215Z,20.33
2023-01-09T23:48:38.813Z,16.43
2023-01-09T23:51:05.995Z,13.20
2023-01-09T23:53:32.958Z,15.67
2023-01-09T23:56:01.022Z,16.57
2023-01-09T23:58:27.716Z,14.47
